EFHK Airport Information

Runway Information
Runway 04L Length 10039 ft width 197 ft
Elevation 133 ft Threshold 0 ft Heading 48
Runway 22R Length 10039 ft Width 197 ft
Elevation 178 ft Threshold 196 ft Heading 228
Runway 04R Length 11286 ft width 197 ft
Elevation 150 ft Threshold 787 ft Heading 48
Runway 22L Length 11286 ft Width 197 ft
Elevation 147 ft Threshold 0 ft Heading 228
Runway 15 Length 9518 ft width 197 ft
Elevation 162 ft Threshold 0 ft Heading 154
Runway 33 Length 9518 ft Width 197 ft
Elevation 146 ft Threshold 0 ft Heading 334
Airport Frequencies
Type APP Name APP Frequency 119.1 MHZ
Type APP Name Frequency 129.85 MHZ
Type ATIS Name HEL VOR Frequency 114.2 MHZ
Type ATIS Name Frequency 135.075 MHZ
Type DEL Name Frequency 118.125 MHZ
Type GND Name GND Frequency 121.8 MHZ
Type PMSV Name PMSV METRO Frequency 125.1 MHZ
Type RMP Name RMP Frequency 121.65 MHZ
Type TWR Name 22L/04R an Frequency 118.6 MHZ
Type TWR Name 22R/04L Frequency 118.85 MHZ
Airport Navaids
Type NDB Name Espoo Frequency 381 KHZ
Type VOR-DME Name Helsinki Frequency 114200 KHZ
Type NDB Name Korso Frequency 322 KHZ
Airport Weather Information & NOTAM
ADDS - METARS form results

(1127 UTC 18 September 2020)
Data provider http://aviationweather.gov/metar/data/
 
METAR text: EFHK 181120Z 26010KT CAVOK 14/02 Q1017 NOSIG
Conditions at: EFHK (HELSINKI/VANTAA , FI) observed 1120 UTC 18 September 2020
Temperature: 14.0°C (57°F)
Dewpoint: 2.0°C (36°F) [RH = 44%]
Pressure (altimeter): 30.03 inches Hg (1017.0 mb)
Winds: from the W (260 degrees) at 12 MPH (10 knots; 5.1 m/s)
Visibility: 6 or more miles (10+ km)
Ceiling: ceiling and visibility are OK
Clouds: unknown
Weather: no significant weather observed at this time

METAR text: EFHK 181050Z 26007KT 230V290 CAVOK 13/02 Q1017 NOSIG
Conditions at: EFHK (HELSINKI/VANTAA , FI) observed 1050 UTC 18 September 2020
Temperature: 13.0°C (55°F)
Dewpoint: 2.0°C (36°F) [RH = 47%]
Pressure (altimeter): 30.03 inches Hg (1017.0 mb)
Winds: from the W (260 degrees) at 8 MPH (7 knots; 3.6 m/s)
Visibility: 6 or more miles (10+ km)
Ceiling: ceiling and visibility are OK
Clouds: unknown
Weather: no significant weather observed at this time

Forecast for: EFHK (HELSINKI/VANTAA , FI)
Text: TAF EFHK 180826Z 1809/1909 27009KT CAVOK
Forecast period: 0900 UTC 18 September 2020 to 0900 UTC 19 September 2020
Forecast type: FROM: standard forecast or significant change
Winds: from the W (270 degrees) at 10 MPH (9 knots; 4.6 m/s)
Visibility: 6 or more miles (10+ km)
Ceiling: unknown
Clouds: missing
Weather: NSW  (no significant weather)